sensor_id;sensor_type;location;lat;lon;timestamp;P1;durP1;ratioP1;P2;durP2;ratioP2
43363;SDS011;40636;52.424;-1.948;2022-08-19T00:02:01;2.28;;;1.25;;
43363;SDS011;40636;52.424;-1.948;2022-08-19T00:04:31;3.83;;;1.75;;
43363;SDS011;40636;52.424;-1.948;2022-08-19T00:07:03;3.22;;;1.67;;
43363;SDS011;40636;52.424;-1.948;2022-08-19T00:09:31;4.15;;;1.58;;
43363;SDS011;40636;52.424;-1.948;2022-08-19T00:11:58;2.60;;;1.98;;
43363;SDS011;40636;52.424;-1.948;2022-08-19T00:14:26;2.90;;;1.70;;
43363;SDS011;40636;52.424;-1.948;2022-08-19T00:16:58;2.58;;;1.33;;
43363;SDS011;40636;52.424;-1.948;2022-08-19T00:19:26;2.33;;;1.42;;
43363;SDS011;40636;52.424;-1.948;2022-08-19T00:21:53;3.13;;;1.63;;
43363;SDS011;40636;52.424;-1.948;2022-08-19T00:24:22;1.52;;;1.20;;
43363;SDS011;40636;52.424;-1.948;2022-08-19T00:26:49;4.68;;;1.60;;
43363;SDS011;40636;52.424;-1.948;2022-08-19T00:29:18;3.70;;;1.20;;
43363;SDS011;40636;52.424;-1.948;2022-08-19T00:31:46;3.50;;;1.60;;
43363;SDS011;40636;52.424;-1.948;2022-08-19T00:34:16;4.47;;;1.40;;
43363;SDS011;40636;52.424;-1.948;2022-08-19T00:36:43;2.97;;;1.50;;
43363;SDS011;40636;52.424;-1.948;2022-08-19T00:39:10;4.88;;;1.70;;
43363;SDS011;40636;52.424;-1.948;2022-08-19T00:41:39;3.97;;;1.30;;
43363;SDS011;40636;52.424;-1.948;2022-08-19T00:44:08;4.25;;;1.33;;
43363;SDS011;40636;52.424;-1.948;2022-08-19T00:46:41;3.75;;;1.25;;
43363;SDS011;40636;52.424;-1.948;2022-08-19T00:49:23;4.03;;;1.45;;
43363;SDS011;40636;52.424;-1.948;2022-08-19T00:51:55;4.45;;;1.05;;
43363;SDS011;40636;52.424;-1.948;2022-08-19T00:54:30;5.10;;;1.10;;
43363;SDS011;40636;52.424;-1.948;2022-08-19T00:56:59;6.43;;;2.28;;
43363;SDS011;40636;52.424;-1.948;2022-08-19T00:59:28;2.67;;;1.30;;
43363;SDS011;40636;52.424;-1.948;2022-08-19T01:02:16;6.47;;;1.48;;
43363;SDS011;40636;52.424;-1.948;2022-08-19T01:04:43;3.17;;;1.48;;
43363;SDS011;40636;52.424;-1.948;2022-08-19T01:07:10;4.00;;;1.60;;
43363;SDS011;40636;52.424;-1.948;2022-08-19T01:09:44;1.67;;;1.02;;
43363;SDS011;40636;52.424;-1.948;2022-08-19T01:12:11;2.00;;;1.40;;
43363;SDS011;40636;52.424;-1.948;2022-08-19T01:14:39;5.10;;;2.00;;
43363;SDS011;40636;52.424;-1.948;2022-08-19T01:17:08;4.47;;;1.45;;
43363;SDS011;40636;52.424;-1.948;2022-08-19T01:19:39;3.35;;;1.40;;
43363;SDS011;40636;52.424;-1.948;2022-08-19T01:25:01;4.57;;;1.42;;
43363;SDS011;40636;52.424;-1.948;2022-08-19T01:27:40;3.42;;;1.20;;
43363;SDS011;40636;52.424;-1.948;2022-08-19T01:30:13;2.10;;;1.25;;
43363;SDS011;40636;52.424;-1.948;2022-08-19T01:32:42;4.32;;;1.13;;
43363;SDS011;40636;52.424;-1.948;2022-08-19T01:35:10;6.35;;;1.50;;
43363;SDS011;40636;52.424;-1.948;2022-08-19T01:37:48;3.95;;;1.80;;
43363;SDS011;40636;52.424;-1.948;2022-08-19T01:40:19;3.65;;;1.38;;
43363;SDS011;40636;52.424;-1.948;2022-08-19T01:42:48;2.50;;;1.50;;
43363;SDS011;40636;52.424;-1.948;2022-08-19T01:45:17;4.03;;;2.03;;
43363;SDS011;40636;52.424;-1.948;2022-08-19T01:47:45;3.83;;;1.33;;
43363;SDS011;40636;52.424;-1.948;2022-08-19T01:50:28;5.43;;;1.67;;
43363;SDS011;40636;52.424;-1.948;2022-08-19T01:52:55;1.67;;;1.30;;
43363;SDS011;40636;52.424;-1.948;2022-08-19T01:55:32;4.32;;;1.42;;
43363;SDS011;40636;52.424;-1.948;2022-08-19T01:58:08;4.80;;;1.65;;
43363;SDS011;40636;52.424;-1.948;2022-08-19T02:00:38;2.50;;;1.20;;
43363;SDS011;40636;52.424;-1.948;2022-08-19T02:03:06;2.08;;;1.40;;
43363;SDS011;40636;52.424;-1.948;2022-08-19T02:05:36;12.32;;;2.42;;
43363;SDS011;40636;52.424;-1.948;2022-08-19T02:08:03;2.33;;;1.27;;
43363;SDS011;40636;52.424;-1.948;2022-08-19T02:10:31;4.18;;;1.60;;
43363;SDS011;40636;52.424;-1.948;2022-08-19T02:12:58;1.83;;;1.25;;
43363;SDS011;40636;52.424;-1.948;2022-08-19T02:15:25;3.88;;;1.40;;
43363;SDS011;40636;52.424;-1.948;2022-08-19T02:17:52;3.63;;;1.13;;
43363;SDS011;40636;52.424;-1.948;2022-08-19T02:20:19;3.17;;;1.30;;
43363;SDS011;40636;52.424;-1.948;2022-08-19T02:22:46;2.97;;;1.20;;
43363;SDS011;40636;52.424;-1.948;2022-08-19T02:25:13;3.92;;;1.65;;
43363;SDS011;40636;52.424;-1.948;2022-08-19T02:27:40;3.35;;;1.30;;
43363;SDS011;40636;52.424;-1.948;2022-08-19T02:30:10;1.58;;;1.25;;
43363;SDS011;40636;52.424;-1.948;2022-08-19T02:32:42;4.20;;;1.45;;
43363;SDS011;40636;52.424;-1.948;2022-08-19T02:35:10;2.97;;;1.60;;
43363;SDS011;40636;52.424;-1.948;2022-08-19T02:37:39;2.38;;;1.27;;
43363;SDS011;40636;52.424;-1.948;2022-08-19T02:40:25;1.40;;;1.00;;
43363;SDS011;40636;52.424;-1.948;2022-08-19T02:42:53;2.53;;;1.40;;
43363;SDS011;40636;52.424;-1.948;2022-08-19T02:45:20;4.28;;;1.48;;
43363;SDS011;40636;52.424;-1.948;2022-08-19T02:47:47;3.83;;;1.10;;
43363;SDS011;40636;52.424;-1.948;2022-08-19T02:50:14;2.53;;;1.30;;
43363;SDS011;40636;52.424;-1.948;2022-08-19T02:52:40;2.50;;;1.17;;
43363;SDS011;40636;52.424;-1.948;2022-08-19T02:55:08;1.35;;;1.17;;
43363;SDS011;40636;52.424;-1.948;2022-08-19T02:57:35;1.63;;;1.20;;
43363;SDS011;40636;52.424;-1.948;2022-08-19T03:00:04;5.30;;;2.05;;
43363;SDS011;40636;52.424;-1.948;2022-08-19T03:02:36;4.35;;;1.00;;
43363;SDS011;40636;52.424;-1.948;2022-08-19T03:05:04;2.08;;;0.93;;
43363;SDS011;40636;52.424;-1.948;2022-08-19T03:07:32;2.20;;;1.40;;
43363;SDS011;40636;52.424;-1.948;2022-08-19T03:09:59;2.38;;;1.15;;
43363;SDS011;40636;52.424;-1.948;2022-08-19T03:12:25;2.28;;;1.20;;
43363;SDS011;40636;52.424;-1.948;2022-08-19T03:14:52;4.82;;;1.52;;
43363;SDS011;40636;52.424;-1.948;2022-08-19T03:17:19;2.70;;;1.75;;
43363;SDS011;40636;52.424;-1.948;2022-08-19T03:19:46;4.22;;;1.65;;
43363;SDS011;40636;52.424;-1.948;2022-08-19T03:22:13;3.90;;;1.60;;
43363;SDS011;40636;52.424;-1.948;2022-08-19T03:24:40;3.40;;;1.52;;
43363;SDS011;40636;52.424;-1.948;2022-08-19T03:27:07;3.97;;;1.70;;
43363;SDS011;40636;52.424;-1.948;2022-08-19T03:29:34;3.00;;;1.70;;
43363;SDS011;40636;52.424;-1.948;2022-08-19T03:32:09;7.95;;;1.60;;
43363;SDS011;40636;52.424;-1.948;2022-08-19T03:34:57;3.95;;;1.80;;
43363;SDS011;40636;52.424;-1.948;2022-08-19T03:37:23;5.93;;;1.52;;
43363;SDS011;40636;52.424;-1.948;2022-08-19T03:39:51;7.75;;;1.67;;
43363;SDS011;40636;52.424;-1.948;2022-08-19T03:42:18;3.40;;;1.63;;
43363;SDS011;40636;52.424;-1.948;2022-08-19T03:44:58;10.15;;;1.95;;
43363;SDS011;40636;52.424;-1.948;2022-08-19T03:47:25;7.70;;;1.77;;
43363;SDS011;40636;52.424;-1.948;2022-08-19T03:49:52;5.43;;;2.28;;
43363;SDS011;40636;52.424;-1.948;2022-08-19T03:52:19;3.13;;;1.60;;
43363;SDS011;40636;52.424;-1.948;2022-08-19T03:54:45;8.00;;;2.67;;
43363;SDS011;40636;52.424;-1.948;2022-08-19T03:57:12;8.65;;;2.67;;
43363;SDS011;40636;52.424;-1.948;2022-08-19T03:59:39;5.30;;;2.35;;
43363;SDS011;40636;52.424;-1.948;2022-08-19T04:02:08;4.53;;;2.15;;
43363;SDS011;40636;52.424;-1.948;2022-08-19T04:04:37;13.00;;;2.45;;
43363;SDS011;40636;52.424;-1.948;2022-08-19T04:07:06;7.32;;;2.22;;
43363;SDS011;40636;52.424;-1.948;2022-08-19T04:09:33;9.43;;;2.67;;
43363;SDS011;40636;52.424;-1.948;2022-08-19T04:12:03;6.38;;;1.80;;
43363;SDS011;40636;52.424;-1.948;2022-08-19T04:14:32;6.82;;;1.90;;
43363;SDS011;40636;52.424;-1.948;2022-08-19T04:17:00;3.38;;;1.38;;
43363;SDS011;40636;52.424;-1.948;2022-08-19T04:19:31;5.53;;;1.70;;
43363;SDS011;40636;52.424;-1.948;2022-08-19T04:22:00;8.45;;;2.03;;
43363;SDS011;40636;52.424;-1.948;2022-08-19T04:24:27;6.25;;;2.20;;
43363;SDS011;40636;52.424;-1.948;2022-08-19T04:26:54;9.52;;;2.03;;
43363;SDS011;40636;52.424;-1.948;2022-08-19T04:29:22;7.55;;;1.90;;
43363;SDS011;40636;52.424;-1.948;2022-08-19T04:31:52;6.03;;;2.13;;
43363;SDS011;40636;52.424;-1.948;2022-08-19T04:34:20;5.38;;;2.22;;
43363;SDS011;40636;52.424;-1.948;2022-08-19T04:36:51;2.97;;;1.48;;
43363;SDS011;40636;52.424;-1.948;2022-08-19T04:39:20;4.57;;;2.45;;
43363;SDS011;40636;52.424;-1.948;2022-08-19T04:42:11;5.32;;;1.95;;
43363;SDS011;40636;52.424;-1.948;2022-08-19T04:44:57;3.97;;;2.10;;
43363;SDS011;40636;52.424;-1.948;2022-08-19T04:47:25;5.75;;;2.38;;
43363;SDS011;40636;52.424;-1.948;2022-08-19T04:50:12;5.70;;;2.15;;
43363;SDS011;40636;52.424;-1.948;2022-08-19T04:52:40;4.20;;;2.17;;
43363;SDS011;40636;52.424;-1.948;2022-08-19T04:55:10;4.18;;;2.05;;
43363;SDS011;40636;52.424;-1.948;2022-08-19T04:57:37;4.65;;;1.90;;
43363;SDS011;40636;52.424;-1.948;2022-08-19T05:00:07;8.52;;;2.35;;
43363;SDS011;40636;52.424;-1.948;2022-08-19T05:02:35;6.13;;;1.95;;
43363;SDS011;40636;52.424;-1.948;2022-08-19T05:05:02;5.93;;;2.33;;
43363;SDS011;40636;52.424;-1.948;2022-08-19T05:07:29;7.78;;;2.22;;
43363;SDS011;40636;52.424;-1.948;2022-08-19T05:09:57;5.72;;;2.17;;
43363;SDS011;40636;52.424;-1.948;2022-08-19T05:12:24;6.90;;;2.15;;
43363;SDS011;40636;52.424;-1.948;2022-08-19T05:14:54;7.28;;;2.67;;
43363;SDS011;40636;52.424;-1.948;2022-08-19T05:17:23;6.07;;;1.75;;
43363;SDS011;40636;52.424;-1.948;2022-08-19T05:19:54;5.60;;;2.42;;
43363;SDS011;40636;52.424;-1.948;2022-08-19T05:22:40;2.97;;;1.90;;
43363;SDS011;40636;52.424;-1.948;2022-08-19T05:25:09;6.35;;;2.28;;
43363;SDS011;40636;52.424;-1.948;2022-08-19T05:27:39;3.55;;;1.88;;
43363;SDS011;40636;52.424;-1.948;2022-08-19T05:30:08;6.88;;;2.30;;
43363;SDS011;40636;52.424;-1.948;2022-08-19T05:32:37;6.28;;;2.58;;
43363;SDS011;40636;52.424;-1.948;2022-08-19T05:35:05;6.03;;;2.42;;
43363;SDS011;40636;52.424;-1.948;2022-08-19T05:37:33;12.23;;;3.20;;
43363;SDS011;40636;52.424;-1.948;2022-08-19T05:40:00;9.80;;;3.15;;
43363;SDS011;40636;52.424;-1.948;2022-08-19T05:42:28;8.35;;;2.40;;
43363;SDS011;40636;52.424;-1.948;2022-08-19T05:44:55;6.70;;;2.33;;
43363;SDS011;40636;52.424;-1.948;2022-08-19T05:47:22;7.13;;;2.35;;
43363;SDS011;40636;52.424;-1.948;2022-08-19T05:49:49;8.30;;;2.47;;
43363;SDS011;40636;52.424;-1.948;2022-08-19T05:52:17;15.40;;;3.28;;
43363;SDS011;40636;52.424;-1.948;2022-08-19T05:54:50;7.22;;;2.50;;
43363;SDS011;40636;52.424;-1.948;2022-08-19T05:57:18;7.40;;;2.78;;
43363;SDS011;40636;52.424;-1.948;2022-08-19T05:59:45;11.07;;;2.50;;
43363;SDS011;40636;52.424;-1.948;2022-08-19T06:02:23;4.72;;;2.92;;
43363;SDS011;40636;52.424;-1.948;2022-08-19T06:04:51;7.22;;;2.22;;
43363;SDS011;40636;52.424;-1.948;2022-08-19T06:07:18;13.20;;;2.30;;
43363;SDS011;40636;52.424;-1.948;2022-08-19T06:09:45;9.63;;;1.73;;
43363;SDS011;40636;52.424;-1.948;2022-08-19T06:12:26;8.18;;;2.45;;
43363;SDS011;40636;52.424;-1.948;2022-08-19T06:15:03;5.13;;;2.08;;
43363;SDS011;40636;52.424;-1.948;2022-08-19T06:17:33;6.88;;;2.00;;
43363;SDS011;40636;52.424;-1.948;2022-08-19T06:20:05;5.80;;;2.45;;
43363;SDS011;40636;52.424;-1.948;2022-08-19T06:22:38;6.00;;;1.90;;
43363;SDS011;40636;52.424;-1.948;2022-08-19T06:25:07;3.13;;;1.98;;
43363;SDS011;40636;52.424;-1.948;2022-08-19T06:27:35;5.03;;;1.63;;
43363;SDS011;40636;52.424;-1.948;2022-08-19T06:30:13;7.15;;;2.05;;
43363;SDS011;40636;52.424;-1.948;2022-08-19T06:32:41;9.07;;;2.08;;
43363;SDS011;40636;52.424;-1.948;2022-08-19T06:35:08;11.68;;;2.05;;
43363;SDS011;40636;52.424;-1.948;2022-08-19T06:37:36;6.13;;;1.90;;
43363;SDS011;40636;52.424;-1.948;2022-08-19T06:40:08;10.43;;;1.70;;
43363;SDS011;40636;52.424;-1.948;2022-08-19T06:42:37;5.93;;;1.52;;
43363;SDS011;40636;52.424;-1.948;2022-08-19T06:45:19;10.88;;;3.58;;
43363;SDS011;40636;52.424;-1.948;2022-08-19T06:47:50;9.20;;;1.77;;
43363;SDS011;40636;52.424;-1.948;2022-08-19T06:50:23;8.20;;;2.42;;
43363;SDS011;40636;52.424;-1.948;2022-08-19T06:52:50;9.57;;;1.60;;
43363;SDS011;40636;52.424;-1.948;2022-08-19T06:55:18;7.05;;;1.90;;
43363;SDS011;40636;52.424;-1.948;2022-08-19T06:57:45;12.35;;;2.67;;
43363;SDS011;40636;52.424;-1.948;2022-08-19T07:00:13;5.88;;;2.10;;
43363;SDS011;40636;52.424;-1.948;2022-08-19T07:02:41;6.55;;;1.83;;
43363;SDS011;40636;52.424;-1.948;2022-08-19T07:05:21;6.95;;;1.80;;
43363;SDS011;40636;52.424;-1.948;2022-08-19T07:07:48;6.85;;;2.00;;
43363;SDS011;40636;52.424;-1.948;2022-08-19T07:10:16;8.27;;;1.73;;
43363;SDS011;40636;52.424;-1.948;2022-08-19T07:12:43;8.80;;;2.15;;
43363;SDS011;40636;52.424;-1.948;2022-08-19T07:15:10;5.25;;;2.17;;
43363;SDS011;40636;52.424;-1.948;2022-08-19T07:17:38;7.43;;;1.95;;
43363;SDS011;40636;52.424;-1.948;2022-08-19T07:20:07;4.63;;;2.35;;
43363;SDS011;40636;52.424;-1.948;2022-08-19T07:22:38;8.02;;;2.00;;
43363;SDS011;40636;52.424;-1.948;2022-08-19T07:25:06;5.95;;;2.67;;
43363;SDS011;40636;52.424;-1.948;2022-08-19T07:27:34;6.75;;;1.48;;
43363;SDS011;40636;52.424;-1.948;2022-08-19T07:30:02;8.65;;;1.60;;
43363;SDS011;40636;52.424;-1.948;2022-08-19T07:32:29;6.63;;;1.58;;
43363;SDS011;40636;52.424;-1.948;2022-08-19T07:34:57;7.32;;;1.70;;
43363;SDS011;40636;52.424;-1.948;2022-08-19T07:37:27;6.75;;;1.70;;
43363;SDS011;40636;52.424;-1.948;2022-08-19T07:39:59;10.65;;;2.30;;
43363;SDS011;40636;52.424;-1.948;2022-08-19T07:42:27;6.53;;;2.17;;
43363;SDS011;40636;52.424;-1.948;2022-08-19T07:44:56;4.18;;;1.55;;
43363;SDS011;40636;52.424;-1.948;2022-08-19T07:47:24;9.45;;;2.25;;
43363;SDS011;40636;52.424;-1.948;2022-08-19T07:50:10;7.75;;;1.83;;
43363;SDS011;40636;52.424;-1.948;2022-08-19T07:52:38;12.55;;;1.80;;
43363;SDS011;40636;52.424;-1.948;2022-08-19T07:55:07;14.23;;;3.05;;
43363;SDS011;40636;52.424;-1.948;2022-08-19T07:57:56;6.70;;;2.08;;
43363;SDS011;40636;52.424;-1.948;2022-08-19T08:00:23;5.15;;;1.95;;
43363;SDS011;40636;52.424;-1.948;2022-08-19T08:02:51;7.05;;;1.73;;
43363;SDS011;40636;52.424;-1.948;2022-08-19T08:05:21;5.63;;;1.80;;
43363;SDS011;40636;52.424;-1.948;2022-08-19T08:08:09;10.50;;;1.80;;
43363;SDS011;40636;52.424;-1.948;2022-08-19T08:10:55;7.53;;;2.20;;
43363;SDS011;40636;52.424;-1.948;2022-08-19T08:13:23;4.22;;;1.40;;
43363;SDS011;40636;52.424;-1.948;2022-08-19T08:15:54;6.65;;;1.70;;
43363;SDS011;40636;52.424;-1.948;2022-08-19T08:18:22;12.07;;;2.08;;
43363;SDS011;40636;52.424;-1.948;2022-08-19T08:20:54;4.88;;;1.45;;
43363;SDS011;40636;52.424;-1.948;2022-08-19T08:23:22;10.60;;;2.33;;
43363;SDS011;40636;52.424;-1.948;2022-08-19T08:25:53;8.27;;;2.05;;
43363;SDS011;40636;52.424;-1.948;2022-08-19T08:28:23;12.45;;;2.80;;
43363;SDS011;40636;52.424;-1.948;2022-08-19T08:30:51;5.93;;;2.75;;
43363;SDS011;40636;52.424;-1.948;2022-08-19T08:33:19;10.55;;;4.53;;
43363;SDS011;40636;52.424;-1.948;2022-08-19T08:36:06;9.70;;;2.03;;
43363;SDS011;40636;52.424;-1.948;2022-08-19T08:38:34;7.35;;;1.58;;
43363;SDS011;40636;52.424;-1.948;2022-08-19T08:44:10;11.25;;;2.00;;
43363;SDS011;40636;52.424;-1.948;2022-08-19T08:46:49;3.70;;;1.45;;
43363;SDS011;40636;52.424;-1.948;2022-08-19T08:52:51;5.85;;;1.38;;
43363;SDS011;40636;52.424;-1.948;2022-08-19T08:55:07;8.82;;;2.38;;
43363;SDS011;40636;52.424;-1.948;2022-08-19T09:00:19;9.32;;;1.55;;
43363;SDS011;40636;52.424;-1.948;2022-08-19T09:02:49;12.35;;;1.85;;
43363;SDS011;40636;52.424;-1.948;2022-08-19T09:05:17;7.80;;;2.05;;
43363;SDS011;40636;52.424;-1.948;2022-08-19T09:08:05;10.50;;;1.90;;
43363;SDS011;40636;52.424;-1.948;2022-08-19T09:10:46;4.10;;;1.42;;
43363;SDS011;40636;52.424;-1.948;2022-08-19T09:16:12;8.98;;;2.42;;
43363;SDS011;40636;52.424;-1.948;2022-08-19T09:18:50;4.72;;;1.85;;
43363;SDS011;40636;52.424;-1.948;2022-08-19T09:21:23;7.53;;;1.50;;
43363;SDS011;40636;52.424;-1.948;2022-08-19T09:23:55;5.15;;;1.40;;
43363;SDS011;40636;52.424;-1.948;2022-08-19T09:26:25;4.43;;;1.08;;
43363;SDS011;40636;52.424;-1.948;2022-08-19T09:29:13;5.88;;;2.10;;
43363;SDS011;40636;52.424;-1.948;2022-08-19T09:31:40;11.00;;;2.20;;
43363;SDS011;40636;52.424;-1.948;2022-08-19T09:34:07;4.57;;;1.30;;
43363;SDS011;40636;52.424;-1.948;2022-08-19T09:36:47;9.15;;;1.83;;
43363;SDS011;40636;52.424;-1.948;2022-08-19T09:39:21;7.10;;;1.52;;
43363;SDS011;40636;52.424;-1.948;2022-08-19T09:41:48;8.88;;;1.50;;
43363;SDS011;40636;52.424;-1.948;2022-08-19T09:44:19;7.90;;;1.75;;
43363;SDS011;40636;52.424;-1.948;2022-08-19T09:46:52;6.05;;;1.48;;
43363;SDS011;40636;52.424;-1.948;2022-08-19T09:49:19;5.18;;;1.80;;
43363;SDS011;40636;52.424;-1.948;2022-08-19T09:51:50;8.40;;;2.50;;
43363;SDS011;40636;52.424;-1.948;2022-08-19T09:54:19;10.27;;;1.38;;
43363;SDS011;40636;52.424;-1.948;2022-08-19T09:56:50;8.32;;;1.80;;
43363;SDS011;40636;52.424;-1.948;2022-08-19T09:59:17;6.15;;;1.23;;
43363;SDS011;40636;52.424;-1.948;2022-08-19T10:01:44;5.82;;;1.45;;
43363;SDS011;40636;52.424;-1.948;2022-08-19T10:04:11;4.30;;;1.25;;
43363;SDS011;40636;52.424;-1.948;2022-08-19T10:06:48;4.28;;;1.52;;
43363;SDS011;40636;52.424;-1.948;2022-08-19T10:09:20;5.05;;;1.48;;
43363;SDS011;40636;52.424;-1.948;2022-08-19T10:12:00;5.95;;;1.50;;
43363;SDS011;40636;52.424;-1.948;2022-08-19T10:14:28;6.65;;;1.45;;
43363;SDS011;40636;52.424;-1.948;2022-08-19T10:16:56;7.00;;;1.25;;
43363;SDS011;40636;52.424;-1.948;2022-08-19T10:19:25;8.63;;;1.70;;
43363;SDS011;40636;52.424;-1.948;2022-08-19T10:21:56;12.98;;;2.03;;
43363;SDS011;40636;52.424;-1.948;2022-08-19T10:24:26;5.40;;;1.63;;
43363;SDS011;40636;52.424;-1.948;2022-08-19T10:26:54;6.65;;;1.40;;
43363;SDS011;40636;52.424;-1.948;2022-08-19T10:29:25;4.88;;;1.10;;
43363;SDS011;40636;52.424;-1.948;2022-08-19T10:31:59;5.65;;;1.15;;
43363;SDS011;40636;52.424;-1.948;2022-08-19T10:37:15;5.57;;;1.40;;
43363;SDS011;40636;52.424;-1.948;2022-08-19T10:39:54;1.38;;;0.80;;
43363;SDS011;40636;52.424;-1.948;2022-08-19T10:42:21;2.97;;;0.77;;
43363;SDS011;40636;52.424;-1.948;2022-08-19T10:44:48;3.67;;;1.20;;
43363;SDS011;40636;52.424;-1.948;2022-08-19T10:47:17;2.90;;;0.88;;
43363;SDS011;40636;52.424;-1.948;2022-08-19T10:49:56;4.47;;;1.83;;
43363;SDS011;40636;52.424;-1.948;2022-08-19T10:52:43;3.42;;;1.42;;
43363;SDS011;40636;52.424;-1.948;2022-08-19T10:55:15;8.02;;;1.33;;
43363;SDS011;40636;52.424;-1.948;2022-08-19T10:58:15;4.80;;;0.93;;
43363;SDS011;40636;52.424;-1.948;2022-08-19T11:00:55;9.10;;;1.60;;
43363;SDS011;40636;52.424;-1.948;2022-08-19T11:03:24;7.60;;;1.13;;
43363;SDS011;40636;52.424;-1.948;2022-08-19T11:06:00;6.18;;;1.20;;
43363;SDS011;40636;52.424;-1.948;2022-08-19T11:08:32;2.55;;;1.02;;
43363;SDS011;40636;52.424;-1.948;2022-08-19T11:11:01;3.17;;;1.38;;
43363;SDS011;40636;52.424;-1.948;2022-08-19T11:13:30;3.78;;;1.20;;
43363;SDS011;40636;52.424;-1.948;2022-08-19T11:16:00;4.32;;;1.42;;
43363;SDS011;40636;52.424;-1.948;2022-08-19T11:18:36;6.43;;;1.05;;
43363;SDS011;40636;52.424;-1.948;2022-08-19T11:21:18;7.97;;;1.40;;
43363;SDS011;40636;52.424;-1.948;2022-08-19T11:23:46;3.97;;;1.05;;
43363;SDS011;40636;52.424;-1.948;2022-08-19T11:26:15;5.10;;;1.38;;
43363;SDS011;40636;52.424;-1.948;2022-08-19T11:28:44;1.95;;;0.90;;
43363;SDS011;40636;52.424;-1.948;2022-08-19T11:31:11;3.90;;;1.02;;
43363;SDS011;40636;52.424;-1.948;2022-08-19T11:33:43;5.97;;;1.23;;
43363;SDS011;40636;52.424;-1.948;2022-08-19T11:36:13;3.58;;;1.33;;
43363;SDS011;40636;52.424;-1.948;2022-08-19T11:38:41;4.97;;;1.40;;
43363;SDS011;40636;52.424;-1.948;2022-08-19T11:41:08;5.65;;;0.90;;
43363;SDS011;40636;52.424;-1.948;2022-08-19T11:43:35;5.22;;;1.15;;
43363;SDS011;40636;52.424;-1.948;2022-08-19T11:46:04;3.50;;;1.35;;
43363;SDS011;40636;52.424;-1.948;2022-08-19T11:48:36;5.18;;;1.30;;
43363;SDS011;40636;52.424;-1.948;2022-08-19T11:51:04;5.10;;;1.15;;
43363;SDS011;40636;52.424;-1.948;2022-08-19T11:53:35;8.10;;;0.98;;
43363;SDS011;40636;52.424;-1.948;2022-08-19T11:56:04;6.05;;;1.17;;
43363;SDS011;40636;52.424;-1.948;2022-08-19T11:58:32;6.15;;;1.65;;
43363;SDS011;40636;52.424;-1.948;2022-08-19T12:01:00;5.85;;;1.85;;
43363;SDS011;40636;52.424;-1.948;2022-08-19T12:03:31;4.80;;;1.30;;
43363;SDS011;40636;52.424;-1.948;2022-08-19T12:05:57;3.17;;;1.20;;
43363;SDS011;40636;52.424;-1.948;2022-08-19T12:08:24;5.45;;;0.90;;
43363;SDS011;40636;52.424;-1.948;2022-08-19T12:10:51;9.57;;;2.65;;
43363;SDS011;40636;52.424;-1.948;2022-08-19T12:13:18;5.88;;;0.85;;
43363;SDS011;40636;52.424;-1.948;2022-08-19T12:15:45;6.90;;;1.60;;
43363;SDS011;40636;52.424;-1.948;2022-08-19T12:18:14;2.20;;;0.80;;
43363;SDS011;40636;52.424;-1.948;2022-08-19T12:20:42;6.68;;;1.35;;
43363;SDS011;40636;52.424;-1.948;2022-08-19T12:23:10;7.13;;;1.55;;
43363;SDS011;40636;52.424;-1.948;2022-08-19T12:25:37;7.43;;;1.52;;
43363;SDS011;40636;52.424;-1.948;2022-08-19T12:28:17;7.18;;;1.10;;
43363;SDS011;40636;52.424;-1.948;2022-08-19T12:30:46;5.05;;;1.48;;
43363;SDS011;40636;52.424;-1.948;2022-08-19T12:33:14;4.28;;;0.95;;
43363;SDS011;40636;52.424;-1.948;2022-08-19T12:35:41;7.93;;;1.15;;
43363;SDS011;40636;52.424;-1.948;2022-08-19T12:38:13;6.03;;;1.73;;
43363;SDS011;40636;52.424;-1.948;2022-08-19T12:40:40;1.95;;;0.90;;
43363;SDS011;40636;52.424;-1.948;2022-08-19T12:43:08;5.35;;;1.73;;
43363;SDS011;40636;52.424;-1.948;2022-08-19T12:45:35;3.60;;;1.27;;
43363;SDS011;40636;52.424;-1.948;2022-08-19T12:48:02;4.55;;;1.00;;
43363;SDS011;40636;52.424;-1.948;2022-08-19T12:50:51;5.68;;;0.88;;
43363;SDS011;40636;52.424;-1.948;2022-08-19T12:53:19;8.65;;;1.40;;
43363;SDS011;40636;52.424;-1.948;2022-08-19T12:55:45;1.58;;;0.90;;
43363;SDS011;40636;52.424;-1.948;2022-08-19T12:58:12;4.53;;;1.58;;
43363;SDS011;40636;52.424;-1.948;2022-08-19T13:00:39;2.10;;;1.10;;
43363;SDS011;40636;52.424;-1.948;2022-08-19T13:03:07;4.63;;;1.48;;
43363;SDS011;40636;52.424;-1.948;2022-08-19T13:05:35;7.95;;;1.48;;
43363;SDS011;40636;52.424;-1.948;2022-08-19T13:08:02;5.30;;;1.42;;
43363;SDS011;40636;52.424;-1.948;2022-08-19T13:10:31;2.85;;;0.82;;
43363;SDS011;40636;52.424;-1.948;2022-08-19T13:13:05;3.35;;;0.80;;
43363;SDS011;40636;52.424;-1.948;2022-08-19T13:15:36;2.53;;;1.00;;
43363;SDS011;40636;52.424;-1.948;2022-08-19T13:18:08;4.10;;;1.00;;
43363;SDS011;40636;52.424;-1.948;2022-08-19T13:20:37;4.15;;;1.40;;
43363;SDS011;40636;52.424;-1.948;2022-08-19T13:23:07;4.57;;;0.52;;
43363;SDS011;40636;52.424;-1.948;2022-08-19T13:25:35;4.43;;;1.08;;
43363;SDS011;40636;52.424;-1.948;2022-08-19T13:28:03;2.20;;;0.88;;
43363;SDS011;40636;52.424;-1.948;2022-08-19T13:30:32;4.15;;;0.90;;
43363;SDS011;40636;52.424;-1.948;2022-08-19T13:33:18;3.53;;;1.10;;
43363;SDS011;40636;52.424;-1.948;2022-08-19T13:35:51;3.28;;;0.80;;
43363;SDS011;40636;52.424;-1.948;2022-08-19T13:38:26;3.72;;;0.98;;
43363;SDS011;40636;52.424;-1.948;2022-08-19T13:40:54;3.15;;;1.00;;
43363;SDS011;40636;52.424;-1.948;2022-08-19T13:43:22;1.75;;;0.70;;
43363;SDS011;40636;52.424;-1.948;2022-08-19T13:45:53;4.97;;;2.10;;
43363;SDS011;40636;52.424;-1.948;2022-08-19T13:48:23;3.95;;;0.90;;
43363;SDS011;40636;52.424;-1.948;2022-08-19T13:50:52;2.88;;;0.85;;
43363;SDS011;40636;52.424;-1.948;2022-08-19T13:53:20;6.22;;;1.50;;
43363;SDS011;40636;52.424;-1.948;2022-08-19T13:55:47;3.20;;;0.80;;
43363;SDS011;40636;52.424;-1.948;2022-08-19T13:58:14;4.35;;;0.90;;
43363;SDS011;40636;52.424;-1.948;2022-08-19T14:00:42;3.67;;;0.75;;
43363;SDS011;40636;52.424;-1.948;2022-08-19T14:03:11;5.85;;;0.80;;
43363;SDS011;40636;52.424;-1.948;2022-08-19T14:05:39;0.90;;;0.65;;
43363;SDS011;40636;52.424;-1.948;2022-08-19T14:08:06;1.85;;;0.77;;
43363;SDS011;40636;52.424;-1.948;2022-08-19T14:10:33;5.82;;;1.23;;
43363;SDS011;40636;52.424;-1.948;2022-08-19T14:13:01;2.00;;;0.93;;
43363;SDS011;40636;52.424;-1.948;2022-08-19T14:15:29;3.80;;;1.30;;
43363;SDS011;40636;52.424;-1.948;2022-08-19T14:17:57;2.53;;;0.98;;
43363;SDS011;40636;52.424;-1.948;2022-08-19T14:20:24;5.30;;;1.02;;
43363;SDS011;40636;52.424;-1.948;2022-08-19T14:22:52;2.35;;;0.60;;
43363;SDS011;40636;52.424;-1.948;2022-08-19T14:25:24;2.78;;;0.65;;
43363;SDS011;40636;52.424;-1.948;2022-08-19T14:27:53;2.17;;;0.80;;
43363;SDS011;40636;52.424;-1.948;2022-08-19T14:30:23;1.60;;;0.60;;
43363;SDS011;40636;52.424;-1.948;2022-08-19T14:32:55;2.40;;;0.50;;
43363;SDS011;40636;52.424;-1.948;2022-08-19T14:35:23;1.73;;;0.30;;
43363;SDS011;40636;52.424;-1.948;2022-08-19T14:37:50;0.30;;;0.30;;
43363;SDS011;40636;52.424;-1.948;2022-08-19T14:40:22;1.13;;;0.50;;
43363;SDS011;40636;52.424;-1.948;2022-08-19T14:42:58;1.60;;;0.40;;
43363;SDS011;40636;52.424;-1.948;2022-08-19T14:45:31;4.38;;;0.95;;
43363;SDS011;40636;52.424;-1.948;2022-08-19T14:48:02;0.35;;;0.30;;
43363;SDS011;40636;52.424;-1.948;2022-08-19T14:50:29;1.27;;;0.50;;
43363;SDS011;40636;52.424;-1.948;2022-08-19T14:52:57;0.90;;;0.50;;
43363;SDS011;40636;52.424;-1.948;2022-08-19T14:55:40;2.22;;;0.40;;
43363;SDS011;40636;52.424;-1.948;2022-08-19T14:58:08;0.98;;;0.43;;
43363;SDS011;40636;52.424;-1.948;2022-08-19T15:00:55;1.20;;;0.40;;
43363;SDS011;40636;52.424;-1.948;2022-08-19T15:03:23;3.42;;;0.80;;
43363;SDS011;40636;52.424;-1.948;2022-08-19T15:05:50;2.03;;;0.52;;
43363;SDS011;40636;52.424;-1.948;2022-08-19T15:08:18;2.97;;;0.60;;
43363;SDS011;40636;52.424;-1.948;2022-08-19T15:10:45;1.30;;;0.60;;